createdAt,value
2022-08-11T00:01:25.555Z,102228.00
2022-08-11T00:03:56.165Z,102223.00
2022-08-11T00:06:26.577Z,102227.00
2022-08-11T00:08:53.871Z,102227.00
2022-08-11T00:11:21.268Z,102227.00
2022-08-11T00:13:49.308Z,102219.00
2022-08-11T00:16:15.966Z,102225.00
2022-08-11T00:19:01.245Z,102221.00
2022-08-11T00:22:03.181Z,102224.00
2022-08-11T00:24:15.079Z,102217.00
2022-08-11T00:26:46.959Z,102223.00
2022-08-11T00:29:13.445Z,102218.00
2022-08-11T00:31:44.245Z,102225.00
2022-08-11T00:34:11.931Z,102226.00
2022-08-11T00:36:40.746Z,102232.00
2022-08-11T00:39:08.274Z,102236.00
2022-08-11T00:41:35.103Z,102228.00
2022-08-11T00:44:09.879Z,102236.00
2022-08-11T00:46:50.079Z,102235.00
2022-08-11T00:49:24.119Z,102227.00
2022-08-11T00:52:04.298Z,102231.00
2022-08-11T00:55:01.794Z,102235.00
2022-08-11T00:57:38.532Z,102239.00
2022-08-11T01:00:05.471Z,102232.00
2022-08-11T01:02:41.027Z,102238.00
2022-08-11T01:05:26.520Z,102237.00
2022-08-11T01:08:01.308Z,102229.00
2022-08-11T01:10:32.606Z,102228.00
2022-08-11T01:13:08.512Z,102221.00
2022-08-11T01:15:40.234Z,102216.00
2022-08-11T01:18:12.979Z,102223.00
2022-08-11T01:20:58.772Z,102214.00
2022-08-11T01:23:37.086Z,102218.00
2022-08-11T01:26:18.930Z,102217.00
2022-08-11T01:28:45.443Z,102220.00
2022-08-11T01:31:37.122Z,102216.00
2022-08-11T01:34:13.075Z,102214.00
2022-08-11T01:36:59.094Z,102218.00
2022-08-11T01:39:44.287Z,102219.00
2022-08-11T01:42:47.937Z,102214.00
2022-08-11T01:45:24.504Z,102215.00
2022-08-11T01:48:03.576Z,102213.00
2022-08-11T01:50:38.861Z,102217.00
2022-08-11T01:53:24.151Z,102209.00
2022-08-11T01:56:01.183Z,102215.00
2022-08-11T01:58:46.930Z,102210.00
2022-08-11T02:01:13.394Z,102213.00
2022-08-11T02:03:47.225Z,102205.00
2022-08-11T02:06:47.754Z,102203.00
2022-08-11T02:09:20.577Z,102211.00
2022-08-11T02:11:48.753Z,102209.00
2022-08-11T02:14:27.994Z,102208.00
2022-08-11T02:17:13.025Z,102207.00
2022-08-11T02:19:58.132Z,102205.00
2022-08-11T02:23:09.346Z,102203.00
2022-08-11T02:26:04.995Z,102203.00
2022-08-11T02:29:03.580Z,102203.00
2022-08-11T02:32:15.534Z,102197.00
2022-08-11T02:34:59.538Z,102199.00
2022-08-11T02:37:37.392Z,102203.00
2022-08-11T02:40:20.966Z,102193.00
2022-08-11T02:42:56.247Z,102202.00
2022-08-11T02:45:32.282Z,102197.00
2022-08-11T02:48:36.254Z,102195.00
2022-08-11T02:51:23.257Z,102198.00
2022-08-11T02:53:56.259Z,102195.00
2022-08-11T02:56:37.459Z,102195.00
2022-08-11T02:59:26.619Z,102191.00
2022-08-11T03:02:05.323Z,102188.00
2022-08-11T03:04:41.009Z,102193.00
2022-08-11T03:07:28.456Z,102191.00
2022-08-11T03:10:01.906Z,102193.00
2022-08-11T03:12:55.240Z,102191.00
2022-08-11T03:15:40.160Z,102183.00
2022-08-11T03:18:10.278Z,102186.00
2022-08-11T03:20:41.753Z,102183.00
2022-08-11T03:23:20.285Z,102185.00
2022-08-11T03:25:51.800Z,102180.00
2022-08-11T03:28:18.214Z,102183.00
2022-08-11T03:30:56.592Z,102179.00
2022-08-11T03:33:44.068Z,102176.00
2022-08-11T03:36:23.113Z,102173.00
2022-08-11T03:38:55.528Z,102179.00
2022-08-11T03:42:02.490Z,102173.00
2022-08-11T03:44:46.587Z,102165.00
2022-08-11T03:47:13.076Z,102162.00
2022-08-11T03:49:39.466Z,102170.00
2022-08-11T03:52:16.529Z,102169.00
2022-08-11T03:54:45.738Z,102174.00
2022-08-11T03:57:12.286Z,102174.00
2022-08-11T03:59:51.287Z,102169.00
2022-08-11T04:02:20.860Z,102175.00
2022-08-11T04:04:51.332Z,102167.00
2022-08-11T04:07:36.890Z,102172.00
2022-08-11T04:10:35.739Z,102173.00
2022-08-11T04:13:13.228Z,102169.00
2022-08-11T04:16:11.849Z,102165.00
2022-08-11T04:18:58.235Z,102169.00
2022-08-11T04:21:43.535Z,102169.00
2022-08-11T04:24:38.025Z,102167.00
2022-08-11T04:27:14.938Z,102169.00
2022-08-11T04:30:03.502Z,102171.00
2022-08-11T04:32:31.791Z,102166.00
2022-08-11T04:35:05.050Z,102165.00
2022-08-11T04:37:34.766Z,102172.00
2022-08-11T04:40:20.242Z,102172.00
2022-08-11T04:43:11.644Z,102171.00
2022-08-11T04:45:38.047Z,102170.00
2022-08-11T04:48:41.462Z,102174.00
2022-08-11T04:51:51.176Z,102171.00
2022-08-11T04:55:05.483Z,102166.00
2022-08-11T04:57:55.458Z,102168.00
2022-08-11T05:00:45.011Z,102161.00
2022-08-11T05:03:23.401Z,102162.00
2022-08-11T05:06:13.440Z,102169.00
2022-08-11T05:08:39.914Z,102160.00
2022-08-11T05:11:24.989Z,102162.00
2022-08-11T05:14:11.147Z,102164.00
2022-08-11T05:17:07.990Z,102162.00
2022-08-11T05:19:53.366Z,102159.00
2022-08-11T05:22:38.845Z,102161.00
2022-08-11T05:26:43.912Z,102159.00
2022-08-11T05:28:56.910Z,102168.00
2022-08-11T05:31:45.018Z,102170.00
2022-08-11T05:34:41.673Z,102168.00
2022-08-11T05:37:27.166Z,102166.00
2022-08-11T05:40:15.916Z,102163.00
2022-08-11T05:43:02.182Z,102168.00
2022-08-11T05:45:52.773Z,102166.00
2022-08-11T05:48:55.353Z,102172.00
2022-08-11T05:51:53.647Z,102170.00
2022-08-11T05:54:41.854Z,102173.00
2022-08-11T05:57:08.781Z,102177.00
2022-08-11T05:59:35.425Z,102172.00
2022-08-11T06:02:06.120Z,102175.00
2022-08-11T06:04:33.645Z,102177.00
2022-08-11T06:07:06.324Z,102172.00
2022-08-11T06:09:44.717Z,102179.00
2022-08-11T06:12:19.035Z,102171.00
2022-08-11T06:14:49.410Z,102178.00
2022-08-11T06:17:22.216Z,102172.00
2022-08-11T06:19:48.927Z,102176.00
2022-08-11T06:22:20.707Z,102178.00
2022-08-11T06:24:59.035Z,102181.00
2022-08-11T06:27:27.070Z,102183.00
2022-08-11T06:29:55.817Z,102178.00
2022-08-11T06:32:35.396Z,102179.00
2022-08-11T06:35:01.813Z,102177.00
2022-08-11T06:37:35.898Z,102177.00
2022-08-11T06:40:21.911Z,102185.00
2022-08-11T06:42:51.515Z,102179.00
2022-08-11T06:45:30.090Z,102180.00
2022-08-11T06:48:00.718Z,102183.00
2022-08-11T06:50:47.263Z,102181.00
2022-08-11T06:53:15.735Z,102185.00
2022-08-11T06:56:02.549Z,102184.00
2022-08-11T06:58:49.514Z,102181.00
2022-08-11T07:01:19.148Z,102182.00
2022-08-11T07:03:48.575Z,102185.00
2022-08-11T07:06:29.172Z,102188.00
2022-08-11T07:09:45.651Z,102185.00
2022-08-11T07:12:47.182Z,102184.00
2022-08-11T07:16:10.989Z,102182.00
2022-08-11T07:18:39.683Z,102184.00
2022-08-11T07:22:01.183Z,102177.00
2022-08-11T07:25:02.691Z,102172.00
2022-08-11T07:27:42.127Z,102178.00
2022-08-11T07:30:09.593Z,102178.00
2022-08-11T07:32:48.883Z,102180.00
2022-08-11T07:35:21.942Z,102188.00
2022-08-11T07:37:50.951Z,102181.00
2022-08-11T07:40:29.033Z,102187.00
2022-08-11T07:42:55.801Z,102187.00
2022-08-11T07:45:42.190Z,102185.00
2022-08-11T07:48:28.681Z,102190.00
2022-08-11T07:51:14.012Z,102183.00
2022-08-11T07:53:41.873Z,102191.00
2022-08-11T07:56:33.158Z,102187.00
2022-08-11T08:00:03.466Z,102191.00
2022-08-11T08:02:36.528Z,102192.00
2022-08-11T08:05:24.659Z,102191.00
2022-08-11T08:08:09.571Z,102193.00
2022-08-11T08:10:56.592Z,102191.00
2022-08-11T08:13:41.547Z,102188.00
2022-08-11T08:16:26.334Z,102185.00
2022-08-11T08:18:52.920Z,102186.00
2022-08-11T08:21:19.827Z,102185.00
2022-08-11T08:23:46.838Z,102181.00
2022-08-11T08:26:33.008Z,102184.00
2022-08-11T08:29:20.465Z,102178.00
2022-08-11T08:31:50.555Z,102181.00
2022-08-11T08:34:17.833Z,102177.00
2022-08-11T08:36:47.761Z,102180.00
2022-08-11T08:39:14.831Z,102178.00
2022-08-11T08:41:42.776Z,102179.00
2022-08-11T08:44:35.215Z,102186.00
2022-08-11T08:46:58.729Z,102180.00
2022-08-11T08:49:40.406Z,102179.00
2022-08-11T08:52:30.821Z,102183.00
2022-08-11T08:54:57.021Z,102176.00
2022-08-11T08:57:24.030Z,102169.00
2022-08-11T08:59:51.725Z,102172.00
2022-08-11T09:02:33.461Z,102170.00
2022-08-11T09:05:02.303Z,102167.00
2022-08-11T09:07:32.616Z,102171.00
2022-08-11T09:10:06.756Z,102167.00
2022-08-11T09:12:38.254Z,102169.00
2022-08-11T09:15:06.003Z,102172.00
2022-08-11T09:17:43.656Z,102168.00
2022-08-11T09:20:12.918Z,102166.00
2022-08-11T09:23:41.288Z,102168.00
2022-08-11T09:26:05.487Z,102158.00
2022-08-11T09:28:32.317Z,102166.00
2022-08-11T09:31:01.375Z,102158.00
2022-08-11T09:33:28.506Z,102164.00
2022-08-11T09:35:55.147Z,102166.00
2022-08-11T09:38:47.389Z,102160.00
2022-08-11T09:41:17.253Z,102160.00
2022-08-11T09:44:04.364Z,102156.00
2022-08-11T09:46:32.851Z,102158.00
2022-08-11T09:49:00.171Z,102159.00
2022-08-11T09:51:29.983Z,102163.00
2022-08-11T09:54:02.898Z,102158.00
2022-08-11T09:56:50.253Z,102156.00
2022-08-11T09:59:18.161Z,102158.00
2022-08-11T10:01:47.363Z,102154.00
2022-08-11T10:04:18.078Z,102149.00
2022-08-11T10:07:04.522Z,102150.00
2022-08-11T10:09:51.784Z,102151.00
2022-08-11T10:12:25.811Z,102139.00
2022-08-11T10:15:22.111Z,102143.00
2022-08-11T10:18:08.557Z,102143.00
2022-08-11T10:20:37.067Z,102141.00
2022-08-11T10:23:22.403Z,102144.00
2022-08-11T10:26:07.788Z,102132.00
2022-08-11T10:28:50.009Z,102133.00
2022-08-11T10:31:57.124Z,102132.00
2022-08-11T10:34:24.994Z,102127.00
2022-08-11T10:36:55.064Z,102111.00
2022-08-11T10:39:22.246Z,102122.00
2022-08-11T10:42:10.749Z,102110.00
2022-08-11T10:44:45.770Z,102113.00
2022-08-11T10:47:32.170Z,102113.00
2022-08-11T10:50:17.689Z,102106.00
2022-08-11T10:53:04.078Z,102106.00
2022-08-11T10:55:49.025Z,102104.00
2022-08-11T10:58:35.366Z,102100.00
2022-08-11T11:01:02.245Z,102097.00
2022-08-11T11:03:30.532Z,102092.00
2022-08-11T11:06:12.996Z,102090.00
2022-08-11T11:08:57.696Z,102094.00
2022-08-11T11:11:49.076Z,102093.00
2022-08-11T11:14:35.888Z,102098.00
2022-08-11T11:17:14.091Z,102090.00
2022-08-11T11:19:41.591Z,102087.00
2022-08-11T11:22:29.065Z,102085.00
2022-08-11T11:25:08.399Z,102081.00
2022-08-11T11:27:46.330Z,102082.00
2022-08-11T11:30:15.165Z,102081.00
2022-08-11T11:32:52.238Z,102084.00
2022-08-11T11:35:27.861Z,102089.00
2022-08-11T11:38:03.403Z,102087.00
2022-08-11T11:40:32.092Z,102089.00
2022-08-11T11:42:59.403Z,102081.00
2022-08-11T11:45:26.018Z,102075.00
2022-08-11T11:47:54.331Z,102083.00
2022-08-11T11:50:25.400Z,102079.00
2022-08-11T11:52:58.981Z,102080.00
2022-08-11T11:55:26.444Z,102082.00
2022-08-11T11:58:18.590Z,102083.00
2022-08-11T12:01:05.353Z,102079.00
2022-08-11T12:03:32.860Z,102077.00
2022-08-11T12:05:59.691Z,102080.00
2022-08-11T12:08:27.926Z,102080.00
2022-08-11T12:11:18.270Z,102075.00
2022-08-11T12:13:46.047Z,102076.00
2022-08-11T12:16:34.190Z,102072.00
2022-08-11T12:19:01.179Z,102071.00
2022-08-11T12:21:28.653Z,102069.00
2022-08-11T12:24:15.135Z,102070.00
2022-08-11T12:27:15.119Z,102074.00
2022-08-11T12:29:44.328Z,102074.00
2022-08-11T12:32:11.089Z,102069.00
2022-08-11T12:34:37.614Z,102058.00
2022-08-11T12:37:06.908Z,102068.00
2022-08-11T12:40:17.162Z,102064.00
2022-08-11T12:43:21.120Z,102065.00
2022-08-11T12:45:51.119Z,102063.00
2022-08-11T12:48:59.617Z,102063.00
2022-08-11T12:52:02.999Z,102060.00
2022-08-11T12:54:51.903Z,102057.00
2022-08-11T12:57:39.323Z,102058.00
2022-08-11T13:00:25.031Z,102056.00
2022-08-11T13:03:10.989Z,102051.00
2022-08-11T13:05:44.407Z,102058.00
2022-08-11T13:08:12.125Z,102043.00
2022-08-11T13:10:57.064Z,102046.00
2022-08-11T13:13:53.954Z,102046.00
2022-08-11T13:16:15.151Z,102047.00
2022-08-11T13:18:42.999Z,102039.00
2022-08-11T13:21:20.655Z,102043.00
2022-08-11T13:24:00.486Z,102041.00
2022-08-11T13:26:48.024Z,102035.00
2022-08-11T13:29:16.486Z,102037.00
2022-08-11T13:31:43.017Z,102036.00
2022-08-11T13:34:09.889Z,102027.00
2022-08-11T13:36:36.560Z,102031.00
2022-08-11T13:39:03.543Z,102035.00
2022-08-11T13:41:39.459Z,102019.00
2022-08-11T13:44:10.319Z,102025.00
2022-08-11T13:46:37.836Z,102029.00
2022-08-11T13:49:09.043Z,102023.00
2022-08-11T13:51:37.449Z,102019.00
2022-08-11T13:54:05.904Z,102020.00
2022-08-11T13:56:33.162Z,102017.00
2022-08-11T13:59:01.001Z,102015.00
2022-08-11T14:02:19.727Z,102008.00
2022-08-11T14:04:30.134Z,102014.00
2022-08-11T14:07:01.415Z,102011.00
2022-08-11T14:09:28.865Z,102013.00
2022-08-11T14:12:22.561Z,102011.00
2022-08-11T14:14:55.991Z,102007.00
2022-08-11T14:17:44.211Z,102009.00
2022-08-11T14:20:37.804Z,102011.00
2022-08-11T14:22:57.592Z,102004.00
2022-08-11T14:26:01.140Z,102000.00
2022-08-11T14:28:31.010Z,102004.00
2022-08-11T14:31:01.189Z,102011.00
2022-08-11T14:33:58.745Z,102003.00
2022-08-11T14:36:15.473Z,102007.00
2022-08-11T14:38:42.250Z,101996.00
2022-08-11T14:41:28.151Z,102003.00
2022-08-11T14:44:16.624Z,101997.00
2022-08-11T14:47:01.980Z,101997.00
2022-08-11T14:49:29.211Z,101994.00
2022-08-11T14:51:57.637Z,101997.00
2022-08-11T14:54:47.483Z,102004.00
2022-08-11T14:57:14.350Z,101995.00
2022-08-11T14:59:40.966Z,102001.00
2022-08-11T15:02:26.338Z,101986.00
2022-08-11T15:04:53.434Z,101991.00
2022-08-11T15:07:29.433Z,101986.00
2022-08-11T15:10:12.693Z,101987.00
2022-08-11T15:12:41.979Z,101981.00
2022-08-11T15:15:27.548Z,101990.00
2022-08-11T15:17:55.074Z,101980.00
2022-08-11T15:20:40.363Z,101975.00
2022-08-11T15:23:26.126Z,101973.00
2022-08-11T15:25:57.695Z,101980.00
2022-08-11T15:28:43.497Z,101970.00
2022-08-11T15:31:29.398Z,101972.00
2022-08-11T15:34:18.163Z,101967.00
2022-08-11T15:37:04.564Z,101962.00
2022-08-11T15:39:38.113Z,101952.00
2022-08-11T15:42:27.348Z,101954.00
2022-08-11T15:45:14.693Z,101960.00
2022-08-11T15:47:44.505Z,101954.00
2022-08-11T15:50:17.764Z,101952.00
2022-08-11T15:52:48.112Z,101951.00
2022-08-11T15:55:15.949Z,101955.00
2022-08-11T15:58:02.086Z,101949.00
2022-08-11T16:00:47.354Z,101944.00
2022-08-11T16:04:06.865Z,101944.00
2022-08-11T16:06:19.892Z,101951.00
2022-08-11T16:08:51.772Z,101942.00
2022-08-11T16:11:19.024Z,101940.00
2022-08-11T16:13:45.480Z,101943.00
2022-08-11T16:16:14.677Z,101935.00
2022-08-11T16:18:47.187Z,101941.00
2022-08-11T16:21:25.989Z,101939.00
2022-08-11T16:24:03.525Z,101946.00
2022-08-11T16:27:11.491Z,101941.00
2022-08-11T16:29:18.604Z,101928.00
2022-08-11T16:32:05.523Z,101935.00
2022-08-11T16:34:51.988Z,101933.00
2022-08-11T16:37:37.619Z,101934.00
2022-08-11T16:40:05.550Z,101931.00
2022-08-11T16:43:05.234Z,101933.00
2022-08-11T16:45:56.499Z,101933.00
2022-08-11T16:48:35.161Z,101934.00
2022-08-11T16:51:08.076Z,101938.00
2022-08-11T16:54:03.879Z,101941.00
2022-08-11T16:56:24.553Z,101941.00
2022-08-11T16:59:12.246Z,101934.00
2022-08-11T17:01:39.006Z,101934.00
2022-08-11T17:04:32.797Z,101935.00
2022-08-11T17:07:23.343Z,101931.00
2022-08-11T17:10:50.504Z,101932.00
2022-08-11T17:13:12.763Z,101938.00
2022-08-11T17:16:07.580Z,101928.00
2022-08-11T17:18:40.464Z,101935.00
2022-08-11T17:21:07.778Z,101939.00
2022-08-11T17:23:47.421Z,101933.00
2022-08-11T17:26:18.313Z,101931.00
2022-08-11T17:28:45.026Z,101930.00
2022-08-11T17:31:32.249Z,101934.00
2022-08-11T17:34:18.055Z,101929.00
2022-08-11T17:36:45.807Z,101930.00
2022-08-11T17:39:13.348Z,101924.00
2022-08-11T17:41:59.164Z,101926.00
2022-08-11T17:44:44.828Z,101930.00
2022-08-11T17:47:30.421Z,101930.00
2022-08-11T17:49:57.137Z,101934.00
2022-08-11T17:53:02.928Z,101935.00
2022-08-11T17:55:51.938Z,101934.00
2022-08-11T17:58:39.446Z,101931.00
2022-08-11T18:01:09.045Z,101927.00
2022-08-11T18:03:39.702Z,101922.00
2022-08-11T18:06:12.726Z,101927.00
2022-08-11T18:09:01.442Z,101924.00
2022-08-11T18:12:06.479Z,101927.00
2022-08-11T18:14:55.484Z,101929.00
2022-08-11T18:17:40.577Z,101927.00
2022-08-11T18:20:26.181Z,101922.00
2022-08-11T18:23:12.044Z,101929.00
2022-08-11T18:26:02.634Z,101925.00
2022-08-11T18:29:12.504Z,101930.00
2022-08-11T18:32:00.858Z,101928.00
2022-08-11T18:34:50.465Z,101930.00
2022-08-11T18:37:37.974Z,101928.00
2022-08-11T18:40:26.729Z,101932.00
2022-08-11T18:43:13.772Z,101931.00
2022-08-11T18:46:06.905Z,101927.00
2022-08-11T18:48:55.078Z,101931.00
2022-08-11T18:51:41.225Z,101927.00
2022-08-11T18:54:28.097Z,101932.00
2022-08-11T18:57:14.739Z,101932.00
2022-08-11T19:00:00.602Z,101931.00
2022-08-11T19:02:48.542Z,101931.00
2022-08-11T19:06:36.686Z,101932.00
2022-08-11T19:08:41.772Z,101935.00
2022-08-11T19:11:28.102Z,101934.00
2022-08-11T19:14:13.922Z,101919.00
2022-08-11T19:16:59.957Z,101919.00
2022-08-11T19:19:47.743Z,101928.00
2022-08-11T19:22:35.435Z,101922.00
2022-08-11T19:25:25.289Z,101920.00
2022-08-11T19:28:11.612Z,101923.00
2022-08-11T19:30:57.485Z,101929.00
2022-08-11T19:34:02.714Z,101929.00
2022-08-11T19:36:48.853Z,101929.00
2022-08-11T19:39:33.735Z,101938.00
2022-08-11T19:42:18.970Z,101939.00
2022-08-11T19:45:04.364Z,101938.00
2022-08-11T19:47:59.143Z,101942.00
2022-08-11T19:50:56.800Z,101949.00
2022-08-11T19:53:42.412Z,101947.00
2022-08-11T19:56:27.669Z,101951.00
2022-08-11T19:59:13.122Z,101951.00
2022-08-11T20:02:12.941Z,101954.00
2022-08-11T20:04:58.911Z,101960.00
2022-08-11T20:07:44.381Z,101954.00
2022-08-11T20:10:29.535Z,101958.00
2022-08-11T20:13:21.556Z,101950.00
2022-08-11T20:16:06.995Z,101954.00
2022-08-11T20:18:52.356Z,101955.00
2022-08-11T20:21:37.799Z,101947.00
2022-08-11T20:24:23.060Z,101949.00
2022-08-11T20:27:18.589Z,101949.00
2022-08-11T20:30:11.147Z,101946.00
2022-08-11T20:32:56.964Z,101948.00
2022-08-11T20:35:42.434Z,101950.00
2022-08-11T20:38:28.056Z,101957.00
2022-08-11T20:41:13.760Z,101958.00
2022-08-11T20:44:08.245Z,101957.00
2022-08-11T20:46:56.888Z,101962.00
2022-08-11T20:49:47.845Z,101959.00
2022-08-11T20:52:40.037Z,101966.00
2022-08-11T20:55:51.903Z,101970.00
2022-08-11T20:58:54.850Z,101968.00
2022-08-11T21:01:38.790Z,101975.00
2022-08-11T21:04:26.003Z,101974.00
2022-08-11T21:07:15.114Z,101968.00
2022-08-11T21:10:14.667Z,101967.00
2022-08-11T21:13:25.639Z,101965.00
2022-08-11T21:16:24.986Z,101961.00
2022-08-11T21:19:12.270Z,101965.00
2022-08-11T21:21:58.180Z,101957.00
2022-08-11T21:24:48.006Z,101955.00
2022-08-11T21:27:34.759Z,101955.00
2022-08-11T21:30:20.361Z,101956.00
2022-08-11T21:33:05.168Z,101956.00
2022-08-11T21:35:50.532Z,101954.00
2022-08-11T21:38:35.891Z,101958.00
2022-08-11T21:41:21.257Z,101959.00
2022-08-11T21:44:08.490Z,101961.00
2022-08-11T21:46:54.758Z,101962.00
2022-08-11T21:49:40.334Z,101955.00
2022-08-11T21:52:25.311Z,101956.00
2022-08-11T21:55:10.291Z,101952.00
2022-08-11T21:57:55.812Z,101956.00
2022-08-11T22:00:40.701Z,101958.00
2022-08-11T22:03:25.648Z,101952.00
2022-08-11T22:06:12.386Z,101951.00
2022-08-11T22:08:57.775Z,101951.00
2022-08-11T22:11:42.869Z,101961.00
2022-08-11T22:14:27.750Z,101958.00
2022-08-11T22:17:12.686Z,101951.00
2022-08-11T22:20:00.819Z,101949.00
2022-08-11T22:22:52.538Z,101955.00
2022-08-11T22:25:39.158Z,101955.00
2022-08-11T22:28:36.981Z,101950.00
2022-08-11T22:31:23.213Z,101946.00
2022-08-11T22:34:08.158Z,101945.00
2022-08-11T22:36:53.559Z,101938.00
2022-08-11T22:39:39.588Z,101944.00
2022-08-11T22:42:33.246Z,101948.00
2022-08-11T22:45:19.182Z,101951.00
2022-08-11T22:48:05.050Z,101945.00
2022-08-11T22:50:50.502Z,101951.00
2022-08-11T22:53:58.552Z,101938.00
2022-08-11T22:56:40.667Z,101949.00
2022-08-11T22:59:26.146Z,101948.00
2022-08-11T23:02:11.661Z,101944.00
2022-08-11T23:04:57.270Z,101947.00
2022-08-11T23:07:49.853Z,101941.00
2022-08-11T23:10:35.804Z,101942.00
2022-08-11T23:13:22.150Z,101943.00
2022-08-11T23:16:07.695Z,101944.00
2022-08-11T23:18:53.082Z,101944.00
2022-08-11T23:21:38.364Z,101935.00
2022-08-11T23:24:24.156Z,101937.00
2022-08-11T23:27:09.023Z,101927.00
2022-08-11T23:29:54.472Z,101933.00
2022-08-11T23:32:41.766Z,101939.00
2022-08-11T23:35:40.062Z,101942.00
2022-08-11T23:38:31.982Z,101940.00
2022-08-11T23:41:16.886Z,101941.00
2022-08-11T23:44:02.726Z,101935.00
2022-08-11T23:46:48.814Z,101939.00
2022-08-11T23:49:34.089Z,101938.00
2022-08-11T23:52:19.454Z,101939.00
2022-08-11T23:55:05.012Z,101944.00
2022-08-11T23:57:50.249Z,101938.00
